sensor_id;sensor_type;location;lat;lon;timestamp;temperature;humidity
19692;DHT22;42748;50.016;19.890;2022-12-28T00:01:45;3.90;99.90
19692;DHT22;42748;50.016;19.890;2022-12-28T00:04:13;4.00;99.90
19692;DHT22;42748;50.016;19.890;2022-12-28T00:06:43;3.90;99.90
19692;DHT22;42748;50.016;19.890;2022-12-28T00:09:11;3.90;99.90
19692;DHT22;42748;50.016;19.890;2022-12-28T00:11:39;3.90;99.90
19692;DHT22;42748;50.016;19.890;2022-12-28T00:14:06;3.80;99.90
19692;DHT22;42748;50.016;19.890;2022-12-28T00:16:35;3.80;99.90
19692;DHT22;42748;50.016;19.890;2022-12-28T00:19:05;3.80;99.90
19692;DHT22;42748;50.016;19.890;2022-12-28T00:21:33;3.70;99.90
19692;DHT22;42748;50.016;19.890;2022-12-28T00:24:01;3.70;99.90
19692;DHT22;42748;50.016;19.890;2022-12-28T00:26:30;3.70;99.90
19692;DHT22;42748;50.016;19.890;2022-12-28T00:28:58;3.60;99.90
19692;DHT22;42748;50.016;19.890;2022-12-28T00:31:32;3.60;99.90
19692;DHT22;42748;50.016;19.890;2022-12-28T00:34:01;3.60;99.90
19692;DHT22;42748;50.016;19.890;2022-12-28T00:36:29;3.60;99.90
19692;DHT22;42748;50.016;19.890;2022-12-28T00:39:17;3.60;99.90
19692;DHT22;42748;50.016;19.890;2022-12-28T00:41:45;3.60;99.90
19692;DHT22;42748;50.016;19.890;2022-12-28T00:44:12;3.60;99.90
19692;DHT22;42748;50.016;19.890;2022-12-28T00:46:40;3.60;99.90
19692;DHT22;42748;50.016;19.890;2022-12-28T00:49:07;3.60;99.90
19692;DHT22;42748;50.016;19.890;2022-12-28T00:51:34;3.60;99.90
19692;DHT22;42748;50.016;19.890;2022-12-28T00:54:01;3.60;99.90
19692;DHT22;42748;50.016;19.890;2022-12-28T00:56:28;3.60;99.90
19692;DHT22;42748;50.016;19.890;2022-12-28T00:58:57;3.60;99.90
19692;DHT22;42748;50.016;19.890;2022-12-28T01:01:26;3.50;99.90
19692;DHT22;42748;50.016;19.890;2022-12-28T01:03:57;3.50;99.90
19692;DHT22;42748;50.016;19.890;2022-12-28T01:06:26;3.50;99.90
19692;DHT22;42748;50.016;19.890;2022-12-28T01:08:57;3.50;99.90
19692;DHT22;42748;50.016;19.890;2022-12-28T01:11:28;3.40;99.90
19692;DHT22;42748;50.016;19.890;2022-12-28T01:13:58;3.40;99.90
19692;DHT22;42748;50.016;19.890;2022-12-28T01:16:28;3.40;99.90
19692;DHT22;42748;50.016;19.890;2022-12-28T01:19:17;3.40;99.90
19692;DHT22;42748;50.016;19.890;2022-12-28T01:21:51;3.40;99.90
19692;DHT22;42748;50.016;19.890;2022-12-28T01:24:27;3.40;99.90
19692;DHT22;42748;50.016;19.890;2022-12-28T01:27:00;3.30;99.90
19692;DHT22;42748;50.016;19.890;2022-12-28T01:29:30;3.30;99.90
19692;DHT22;42748;50.016;19.890;2022-12-28T01:31:58;3.30;99.90
19692;DHT22;42748;50.016;19.890;2022-12-28T01:34:28;3.30;99.90
19692;DHT22;42748;50.016;19.890;2022-12-28T01:36:55;3.40;99.90
19692;DHT22;42748;50.016;19.890;2022-12-28T01:39:22;3.40;99.90
19692;DHT22;42748;50.016;19.890;2022-12-28T01:41:49;3.40;99.90
19692;DHT22;42748;50.016;19.890;2022-12-28T01:46:52;3.40;99.90
19692;DHT22;42748;50.016;19.890;2022-12-28T01:49:29;3.40;99.90
19692;DHT22;42748;50.016;19.890;2022-12-28T01:55:14;3.40;99.90
19692;DHT22;42748;50.016;19.890;2022-12-28T01:57:50;3.40;99.90
19692;DHT22;42748;50.016;19.890;2022-12-28T02:00:18;3.30;99.90
19692;DHT22;42748;50.016;19.890;2022-12-28T02:02:50;3.30;99.90
19692;DHT22;42748;50.016;19.890;2022-12-28T02:05:19;3.30;99.90
19692;DHT22;42748;50.016;19.890;2022-12-28T02:08:08;3.30;99.90
19692;DHT22;42748;50.016;19.890;2022-12-28T02:10:35;3.20;99.90
19692;DHT22;42748;50.016;19.890;2022-12-28T02:13:13;3.20;99.90
19692;DHT22;42748;50.016;19.890;2022-12-28T02:15:41;3.10;99.90
19692;DHT22;42748;50.016;19.890;2022-12-28T02:18:08;3.10;99.90
19692;DHT22;42748;50.016;19.890;2022-12-28T02:29:33;2.80;99.90
19692;DHT22;42748;50.016;19.890;2022-12-28T02:37:47;2.60;99.90
19692;DHT22;42748;50.016;19.890;2022-12-28T02:40:31;2.60;99.90
19692;DHT22;42748;50.016;19.890;2022-12-28T02:43:01;2.60;99.90
19692;DHT22;42748;50.016;19.890;2022-12-28T02:45:44;2.50;99.90
19692;DHT22;42748;50.016;19.890;2022-12-28T02:48:44;2.40;99.90
19692;DHT22;42748;50.016;19.890;2022-12-28T02:54:50;2.40;99.90
19692;DHT22;42748;50.016;19.890;2022-12-28T03:00:30;2.30;99.90
19692;DHT22;42748;50.016;19.890;2022-12-28T03:06:55;2.30;99.90
19692;DHT22;42748;50.016;19.890;2022-12-28T03:12:05;2.20;99.90
19692;DHT22;42748;50.016;19.890;2022-12-28T03:14:53;2.20;99.90
19692;DHT22;42748;50.016;19.890;2022-12-28T03:17:27;2.20;99.90
19692;DHT22;42748;50.016;19.890;2022-12-28T03:20:23;2.20;99.90
19692;DHT22;42748;50.016;19.890;2022-12-28T03:23:12;2.20;99.90
19692;DHT22;42748;50.016;19.890;2022-12-28T03:26:03;2.10;99.90
19692;DHT22;42748;50.016;19.890;2022-12-28T03:28:52;2.10;99.90
19692;DHT22;42748;50.016;19.890;2022-12-28T03:31:42;2.10;99.90
19692;DHT22;42748;50.016;19.890;2022-12-28T03:34:12;2.10;99.90
19692;DHT22;42748;50.016;19.890;2022-12-28T03:44:57;2.00;99.90
19692;DHT22;42748;50.016;19.890;2022-12-28T03:47:28;2.00;99.90
19692;DHT22;42748;50.016;19.890;2022-12-28T03:49:58;2.00;99.90
19692;DHT22;42748;50.016;19.890;2022-12-28T03:52:26;1.90;99.90
19692;DHT22;42748;50.016;19.890;2022-12-28T03:54:53;1.90;99.90
19692;DHT22;42748;50.016;19.890;2022-12-28T03:57:22;1.90;99.90
19692;DHT22;42748;50.016;19.890;2022-12-28T03:59:49;1.80;99.90
19692;DHT22;42748;50.016;19.890;2022-12-28T04:02:17;1.80;99.90
19692;DHT22;42748;50.016;19.890;2022-12-28T04:04:45;1.70;99.90
19692;DHT22;42748;50.016;19.890;2022-12-28T04:07:13;1.70;99.90
19692;DHT22;42748;50.016;19.890;2022-12-28T04:09:40;1.60;99.90
19692;DHT22;42748;50.016;19.890;2022-12-28T04:12:09;1.60;99.90
19692;DHT22;42748;50.016;19.890;2022-12-28T04:14:56;1.60;99.90
19692;DHT22;42748;50.016;19.890;2022-12-28T04:17:24;1.60;99.90
19692;DHT22;42748;50.016;19.890;2022-12-28T04:19:51;1.60;99.90
19692;DHT22;42748;50.016;19.890;2022-12-28T04:22:18;1.60;99.90
19692;DHT22;42748;50.016;19.890;2022-12-28T04:24:45;1.60;99.90
19692;DHT22;42748;50.016;19.890;2022-12-28T04:27:12;1.70;99.90
19692;DHT22;42748;50.016;19.890;2022-12-28T04:29:39;1.80;99.90
19692;DHT22;42748;50.016;19.890;2022-12-28T04:32:17;1.70;99.90
19692;DHT22;42748;50.016;19.890;2022-12-28T04:34:45;1.70;99.90
19692;DHT22;42748;50.016;19.890;2022-12-28T04:37:17;1.70;99.90
19692;DHT22;42748;50.016;19.890;2022-12-28T04:39:44;1.70;99.90
19692;DHT22;42748;50.016;19.890;2022-12-28T04:42:24;1.80;99.90
19692;DHT22;42748;50.016;19.890;2022-12-28T04:44:52;1.70;99.90
19692;DHT22;42748;50.016;19.890;2022-12-28T04:47:19;1.80;99.90
19692;DHT22;42748;50.016;19.890;2022-12-28T04:49:46;1.80;99.90
19692;DHT22;42748;50.016;19.890;2022-12-28T04:52:13;1.80;99.90
19692;DHT22;42748;50.016;19.890;2022-12-28T04:54:40;1.80;99.90
19692;DHT22;42748;50.016;19.890;2022-12-28T04:57:07;1.80;99.90
19692;DHT22;42748;50.016;19.890;2022-12-28T04:59:34;1.80;99.90
19692;DHT22;42748;50.016;19.890;2022-12-28T05:02:01;1.80;99.90
19692;DHT22;42748;50.016;19.890;2022-12-28T05:04:28;1.80;99.90
19692;DHT22;42748;50.016;19.890;2022-12-28T05:06:55;1.80;99.90
19692;DHT22;42748;50.016;19.890;2022-12-28T05:09:23;1.80;99.90
19692;DHT22;42748;50.016;19.890;2022-12-28T05:11:50;1.80;99.90
19692;DHT22;42748;50.016;19.890;2022-12-28T05:14:17;1.80;99.90
19692;DHT22;42748;50.016;19.890;2022-12-28T05:16:44;1.70;99.90
19692;DHT22;42748;50.016;19.890;2022-12-28T05:19:11;1.70;99.90
19692;DHT22;42748;50.016;19.890;2022-12-28T05:21:39;1.60;99.90
19692;DHT22;42748;50.016;19.890;2022-12-28T05:24:06;1.60;99.90
19692;DHT22;42748;50.016;19.890;2022-12-28T05:26:33;1.60;99.90
19692;DHT22;42748;50.016;19.890;2022-12-28T05:29:01;1.70;99.90
19692;DHT22;42748;50.016;19.890;2022-12-28T05:31:29;1.70;99.90
19692;DHT22;42748;50.016;19.890;2022-12-28T05:33:56;1.60;99.90
19692;DHT22;42748;50.016;19.890;2022-12-28T05:36:25;1.60;99.90
19692;DHT22;42748;50.016;19.890;2022-12-28T05:38:54;1.60;99.90
19692;DHT22;42748;50.016;19.890;2022-12-28T05:41:24;1.50;99.90
19692;DHT22;42748;50.016;19.890;2022-12-28T05:43:52;1.50;99.90
19692;DHT22;42748;50.016;19.890;2022-12-28T05:46:23;1.50;99.90
19692;DHT22;42748;50.016;19.890;2022-12-28T05:48:50;1.50;99.90
19692;DHT22;42748;50.016;19.890;2022-12-28T05:51:20;1.50;99.90
19692;DHT22;42748;50.016;19.890;2022-12-28T05:53:48;1.50;99.90
19692;DHT22;42748;50.016;19.890;2022-12-28T05:56:18;1.50;99.90
19692;DHT22;42748;50.016;19.890;2022-12-28T05:58:50;1.50;99.90
19692;DHT22;42748;50.016;19.890;2022-12-28T06:01:20;1.50;99.90
19692;DHT22;42748;50.016;19.890;2022-12-28T06:03:52;1.60;99.90
19692;DHT22;42748;50.016;19.890;2022-12-28T06:06:19;1.80;99.90
19692;DHT22;42748;50.016;19.890;2022-12-28T06:08:48;1.80;99.90
19692;DHT22;42748;50.016;19.890;2022-12-28T06:11:17;1.80;99.90
19692;DHT22;42748;50.016;19.890;2022-12-28T06:13:45;2.00;99.90
19692;DHT22;42748;50.016;19.890;2022-12-28T06:16:20;2.00;99.90
19692;DHT22;42748;50.016;19.890;2022-12-28T06:18:48;2.00;99.90
19692;DHT22;42748;50.016;19.890;2022-12-28T06:21:21;2.10;99.90
19692;DHT22;42748;50.016;19.890;2022-12-28T06:23:49;2.10;99.90
19692;DHT22;42748;50.016;19.890;2022-12-28T06:26:18;2.10;99.90
19692;DHT22;42748;50.016;19.890;2022-12-28T06:28:47;2.20;99.90
19692;DHT22;42748;50.016;19.890;2022-12-28T06:31:19;2.20;99.90
19692;DHT22;42748;50.016;19.890;2022-12-28T06:33:48;2.20;99.90
19692;DHT22;42748;50.016;19.890;2022-12-28T06:36:18;2.20;99.90
19692;DHT22;42748;50.016;19.890;2022-12-28T06:38:47;2.20;99.90
19692;DHT22;42748;50.016;19.890;2022-12-28T06:41:16;2.20;99.90
19692;DHT22;42748;50.016;19.890;2022-12-28T06:43:43;2.20;99.90
19692;DHT22;42748;50.016;19.890;2022-12-28T06:46:12;2.20;99.90
19692;DHT22;42748;50.016;19.890;2022-12-28T06:48:39;2.30;99.90
19692;DHT22;42748;50.016;19.890;2022-12-28T06:51:11;2.30;99.90
19692;DHT22;42748;50.016;19.890;2022-12-28T06:53:38;2.30;99.90
19692;DHT22;42748;50.016;19.890;2022-12-28T06:56:27;2.30;99.90
19692;DHT22;42748;50.016;19.890;2022-12-28T06:58:54;2.30;99.90
19692;DHT22;42748;50.016;19.890;2022-12-28T07:01:37;2.40;99.90
19692;DHT22;42748;50.016;19.890;2022-12-28T07:04:06;2.30;99.90
19692;DHT22;42748;50.016;19.890;2022-12-28T07:06:36;2.30;99.90
19692;DHT22;42748;50.016;19.890;2022-12-28T07:09:06;2.30;99.90
19692;DHT22;42748;50.016;19.890;2022-12-28T07:11:34;2.30;99.90
19692;DHT22;42748;50.016;19.890;2022-12-28T07:14:02;2.30;99.90
19692;DHT22;42748;50.016;19.890;2022-12-28T07:16:29;2.40;99.90
19692;DHT22;42748;50.016;19.890;2022-12-28T07:18:57;2.50;99.90
19692;DHT22;42748;50.016;19.890;2022-12-28T07:21:31;2.60;99.90
19692;DHT22;42748;50.016;19.890;2022-12-28T07:23:58;2.60;99.90
19692;DHT22;42748;50.016;19.890;2022-12-28T07:26:28;2.60;99.90
19692;DHT22;42748;50.016;19.890;2022-12-28T07:28:57;2.70;99.90
19692;DHT22;42748;50.016;19.890;2022-12-28T07:31:29;2.70;99.90
19692;DHT22;42748;50.016;19.890;2022-12-28T07:33:58;2.80;99.90
19692;DHT22;42748;50.016;19.890;2022-12-28T07:36:29;2.90;99.90
19692;DHT22;42748;50.016;19.890;2022-12-28T07:38:56;3.00;99.90
19692;DHT22;42748;50.016;19.890;2022-12-28T07:41:28;3.10;99.90
19692;DHT22;42748;50.016;19.890;2022-12-28T07:43:57;3.50;99.90
19692;DHT22;42748;50.016;19.890;2022-12-28T07:46:27;3.80;99.90
19692;DHT22;42748;50.016;19.890;2022-12-28T07:48:55;4.20;99.90
19692;DHT22;42748;50.016;19.890;2022-12-28T07:51:29;4.60;99.90
19692;DHT22;42748;50.016;19.890;2022-12-28T07:53:57;5.10;99.90
19692;DHT22;42748;50.016;19.890;2022-12-28T07:56:26;5.70;99.90
19692;DHT22;42748;50.016;19.890;2022-12-28T07:58:56;5.90;99.90
19692;DHT22;42748;50.016;19.890;2022-12-28T08:01:25;6.10;99.90
19692;DHT22;42748;50.016;19.890;2022-12-28T08:03:54;6.00;99.90
19692;DHT22;42748;50.016;19.890;2022-12-28T08:06:22;6.10;99.90
19692;DHT22;42748;50.016;19.890;2022-12-28T08:08:52;6.10;99.90
19692;DHT22;42748;50.016;19.890;2022-12-28T08:11:22;6.20;99.90
19692;DHT22;42748;50.016;19.890;2022-12-28T08:13:50;6.20;99.90
19692;DHT22;42748;50.016;19.890;2022-12-28T08:16:19;6.10;99.90
19692;DHT22;42748;50.016;19.890;2022-12-28T08:18:47;5.70;99.90
19692;DHT22;42748;50.016;19.890;2022-12-28T08:21:20;5.70;99.90
19692;DHT22;42748;50.016;19.890;2022-12-28T08:23:48;5.70;99.90
19692;DHT22;42748;50.016;19.890;2022-12-28T08:26:21;5.50;99.90
19692;DHT22;42748;50.016;19.890;2022-12-28T08:28:50;5.30;99.90
19692;DHT22;42748;50.016;19.890;2022-12-28T08:31:24;5.30;99.90
19692;DHT22;42748;50.016;19.890;2022-12-28T08:33:53;5.40;99.90
19692;DHT22;42748;50.016;19.890;2022-12-28T08:36:21;5.40;99.90
19692;DHT22;42748;50.016;19.890;2022-12-28T08:38:48;5.40;99.90
19692;DHT22;42748;50.016;19.890;2022-12-28T08:41:18;5.40;99.90
19692;DHT22;42748;50.016;19.890;2022-12-28T08:43:46;5.50;99.90
19692;DHT22;42748;50.016;19.890;2022-12-28T08:46:16;5.60;99.90
19692;DHT22;42748;50.016;19.890;2022-12-28T08:48:44;5.70;99.90
19692;DHT22;42748;50.016;19.890;2022-12-28T08:51:21;5.90;99.90
19692;DHT22;42748;50.016;19.890;2022-12-28T08:53:49;6.10;99.90
19692;DHT22;42748;50.016;19.890;2022-12-28T08:56:27;6.20;99.90
19692;DHT22;42748;50.016;19.890;2022-12-28T08:58:56;6.30;99.90
19692;DHT22;42748;50.016;19.890;2022-12-28T09:01:30;6.40;99.90
19692;DHT22;42748;50.016;19.890;2022-12-28T09:04:10;6.50;99.90
19692;DHT22;42748;50.016;19.890;2022-12-28T09:06:38;6.50;99.90
19692;DHT22;42748;50.016;19.890;2022-12-28T09:09:07;6.60;99.90
19692;DHT22;42748;50.016;19.890;2022-12-28T09:11:35;6.60;99.90
19692;DHT22;42748;50.016;19.890;2022-12-28T09:14:04;6.60;99.90
19692;DHT22;42748;50.016;19.890;2022-12-28T09:16:31;6.70;99.90
19692;DHT22;42748;50.016;19.890;2022-12-28T09:19:00;7.00;99.90
19692;DHT22;42748;50.016;19.890;2022-12-28T09:21:30;7.50;99.90
19692;DHT22;42748;50.016;19.890;2022-12-28T09:23:58;7.50;99.90
19692;DHT22;42748;50.016;19.890;2022-12-28T09:26:27;7.80;99.90
19692;DHT22;42748;50.016;19.890;2022-12-28T09:28:56;8.10;99.90
19692;DHT22;42748;50.016;19.890;2022-12-28T09:31:26;8.10;99.90
19692;DHT22;42748;50.016;19.890;2022-12-28T09:33:54;8.10;99.90
19692;DHT22;42748;50.016;19.890;2022-12-28T09:36:47;8.10;99.90
19692;DHT22;42748;50.016;19.890;2022-12-28T09:39:18;8.20;99.90
19692;DHT22;42748;50.016;19.890;2022-12-28T09:42:03;8.10;99.90
19692;DHT22;42748;50.016;19.890;2022-12-28T09:53:00;8.30;99.90
19692;DHT22;42748;50.016;19.890;2022-12-28T09:55:37;8.10;99.90
19692;DHT22;42748;50.016;19.890;2022-12-28T09:58:13;8.10;99.90
19692;DHT22;42748;50.016;19.890;2022-12-28T10:00:45;7.70;99.90
19692;DHT22;42748;50.016;19.890;2022-12-28T10:03:17;7.60;99.90
19692;DHT22;42748;50.016;19.890;2022-12-28T10:05:45;7.30;99.90
19692;DHT22;42748;50.016;19.890;2022-12-28T10:08:16;7.60;99.90
19692;DHT22;42748;50.016;19.890;2022-12-28T10:10:45;7.60;99.90
19692;DHT22;42748;50.016;19.890;2022-12-28T10:13:27;7.50;99.90
19692;DHT22;42748;50.016;19.890;2022-12-28T10:16:17;7.50;99.90
19692;DHT22;42748;50.016;19.890;2022-12-28T10:18:45;7.30;99.90
19692;DHT22;42748;50.016;19.890;2022-12-28T10:21:14;7.20;99.90
19692;DHT22;42748;50.016;19.890;2022-12-28T10:23:43;7.20;99.90
19692;DHT22;42748;50.016;19.890;2022-12-28T10:26:31;7.10;99.90
19692;DHT22;42748;50.016;19.890;2022-12-28T10:28:59;7.10;99.90
19692;DHT22;42748;50.016;19.890;2022-12-28T10:31:34;7.10;99.90
19692;DHT22;42748;50.016;19.890;2022-12-28T10:34:13;7.00;99.90
19692;DHT22;42748;50.016;19.890;2022-12-28T10:36:43;6.80;99.90
19692;DHT22;42748;50.016;19.890;2022-12-28T10:39:20;6.70;99.90
19692;DHT22;42748;50.016;19.890;2022-12-28T10:41:49;6.70;99.90
19692;DHT22;42748;50.016;19.890;2022-12-28T10:44:25;6.80;99.90
19692;DHT22;42748;50.016;19.890;2022-12-28T10:47:16;6.70;99.90
19692;DHT22;42748;50.016;19.890;2022-12-28T10:49:49;6.60;99.90
19692;DHT22;42748;50.016;19.890;2022-12-28T10:52:37;6.60;99.90
19692;DHT22;42748;50.016;19.890;2022-12-28T10:55:25;6.70;99.90
19692;DHT22;42748;50.016;19.890;2022-12-28T10:57:53;6.60;99.90
19692;DHT22;42748;50.016;19.890;2022-12-28T11:00:40;6.70;99.90
19692;DHT22;42748;50.016;19.890;2022-12-28T11:03:17;6.70;99.90
19692;DHT22;42748;50.016;19.890;2022-12-28T11:05:44;6.60;99.90
19692;DHT22;42748;50.016;19.890;2022-12-28T11:08:22;6.60;99.90
19692;DHT22;42748;50.016;19.890;2022-12-28T11:10:55;6.60;99.90
19692;DHT22;42748;50.016;19.890;2022-12-28T11:13:23;6.60;99.90
19692;DHT22;42748;50.016;19.890;2022-12-28T11:15:53;6.60;99.90
19692;DHT22;42748;50.016;19.890;2022-12-28T11:18:20;6.60;99.90
19692;DHT22;42748;50.016;19.890;2022-12-28T11:20:52;6.50;99.90
19692;DHT22;42748;50.016;19.890;2022-12-28T11:23:24;6.50;99.90
19692;DHT22;42748;50.016;19.890;2022-12-28T11:25:52;6.50;99.90
19692;DHT22;42748;50.016;19.890;2022-12-28T11:28:20;6.60;99.90
19692;DHT22;42748;50.016;19.890;2022-12-28T11:30:49;6.60;99.90
19692;DHT22;42748;50.016;19.890;2022-12-28T11:33:44;6.70;99.90
19692;DHT22;42748;50.016;19.890;2022-12-28T11:36:16;6.70;99.90
19692;DHT22;42748;50.016;19.890;2022-12-28T11:38:45;6.80;99.90
19692;DHT22;42748;50.016;19.890;2022-12-28T11:44:01;6.90;99.90
19692;DHT22;42748;50.016;19.890;2022-12-28T11:49:03;6.90;99.90
19692;DHT22;42748;50.016;19.890;2022-12-28T11:51:34;6.90;99.90
19692;DHT22;42748;50.016;19.890;2022-12-28T11:54:07;6.80;99.90
19692;DHT22;42748;50.016;19.890;2022-12-28T12:01:53;7.00;99.90
19692;DHT22;42748;50.016;19.890;2022-12-28T12:15:07;7.10;99.90
19692;DHT22;42748;50.016;19.890;2022-12-28T12:17:44;7.10;99.90
19692;DHT22;42748;50.016;19.890;2022-12-28T12:20:20;7.20;99.90
19692;DHT22;42748;50.016;19.890;2022-12-28T12:22:55;7.30;99.90
19692;DHT22;42748;50.016;19.890;2022-12-28T12:25:39;7.30;99.90
19692;DHT22;42748;50.016;19.890;2022-12-28T12:30:54;7.50;99.90
19692;DHT22;42748;50.016;19.890;2022-12-28T12:33:25;7.70;99.90
19692;DHT22;42748;50.016;19.890;2022-12-28T12:36:06;7.90;99.90
19692;DHT22;42748;50.016;19.890;2022-12-28T12:53:02;7.90;99.90
19692;DHT22;42748;50.016;19.890;2022-12-28T12:55:45;7.80;99.90
19692;DHT22;42748;50.016;19.890;2022-12-28T12:58:23;7.80;99.90
19692;DHT22;42748;50.016;19.890;2022-12-28T13:01:22;7.80;99.90
19692;DHT22;42748;50.016;19.890;2022-12-28T13:03:54;7.80;99.90
19692;DHT22;42748;50.016;19.890;2022-12-28T13:06:25;7.90;99.90
19692;DHT22;42748;50.016;19.890;2022-12-28T13:08:58;7.80;99.90
19692;DHT22;42748;50.016;19.890;2022-12-28T13:11:35;7.80;99.90
19692;DHT22;42748;50.016;19.890;2022-12-28T13:14:03;7.90;99.90
19692;DHT22;42748;50.016;19.890;2022-12-28T13:16:32;7.90;99.90
19692;DHT22;42748;50.016;19.890;2022-12-28T13:19:05;7.90;99.90
19692;DHT22;42748;50.016;19.890;2022-12-28T13:21:43;7.90;99.90
19692;DHT22;42748;50.016;19.890;2022-12-28T13:24:41;7.80;99.90
19692;DHT22;42748;50.016;19.890;2022-12-28T13:27:18;7.80;99.90
19692;DHT22;42748;50.016;19.890;2022-12-28T13:29:51;7.70;99.90
19692;DHT22;42748;50.016;19.890;2022-12-28T13:32:29;7.60;99.90
19692;DHT22;42748;50.016;19.890;2022-12-28T13:35:16;7.50;99.90
19692;DHT22;42748;50.016;19.890;2022-12-28T13:38:08;7.50;99.90
19692;DHT22;42748;50.016;19.890;2022-12-28T13:40:39;7.40;99.90
19692;DHT22;42748;50.016;19.890;2022-12-28T13:46:12;7.30;99.90
19692;DHT22;42748;50.016;19.890;2022-12-28T13:48:45;7.30;99.90
19692;DHT22;42748;50.016;19.890;2022-12-28T13:51:16;7.30;99.90
19692;DHT22;42748;50.016;19.890;2022-12-28T13:53:49;7.30;99.90
19692;DHT22;42748;50.016;19.890;2022-12-28T13:56:19;7.30;99.90
19692;DHT22;42748;50.016;19.890;2022-12-28T13:58:54;7.30;99.90
19692;DHT22;42748;50.016;19.890;2022-12-28T14:01:26;7.30;99.90
19692;DHT22;42748;50.016;19.890;2022-12-28T14:04:01;7.30;99.90
19692;DHT22;42748;50.016;19.890;2022-12-28T14:06:49;7.30;99.90
19692;DHT22;42748;50.016;19.890;2022-12-28T14:09:18;7.20;99.90
19692;DHT22;42748;50.016;19.890;2022-12-28T14:11:46;7.30;99.90
19692;DHT22;42748;50.016;19.890;2022-12-28T14:14:15;7.20;99.90
19692;DHT22;42748;50.016;19.890;2022-12-28T14:16:43;7.20;99.90
19692;DHT22;42748;50.016;19.890;2022-12-28T14:19:10;7.20;99.90
19692;DHT22;42748;50.016;19.890;2022-12-28T14:21:40;7.20;99.90
19692;DHT22;42748;50.016;19.890;2022-12-28T14:24:15;7.10;99.90
19692;DHT22;42748;50.016;19.890;2022-12-28T14:26:51;7.10;99.90
19692;DHT22;42748;50.016;19.890;2022-12-28T14:29:26;7.10;99.90
19692;DHT22;42748;50.016;19.890;2022-12-28T14:32:02;7.10;99.90
19692;DHT22;42748;50.016;19.890;2022-12-28T14:34:33;7.00;99.90
19692;DHT22;42748;50.016;19.890;2022-12-28T14:37:01;6.90;99.90
19692;DHT22;42748;50.016;19.890;2022-12-28T14:39:30;6.80;99.90
19692;DHT22;42748;50.016;19.890;2022-12-28T14:42:02;6.80;99.90
19692;DHT22;42748;50.016;19.890;2022-12-28T14:44:37;6.70;99.90
19692;DHT22;42748;50.016;19.890;2022-12-28T14:50:17;6.60;99.90
19692;DHT22;42748;50.016;19.890;2022-12-28T14:52:46;6.60;99.90
19692;DHT22;42748;50.016;19.890;2022-12-28T14:57:58;6.50;99.90
19692;DHT22;42748;50.016;19.890;2022-12-28T15:00:32;6.40;99.90
19692;DHT22;42748;50.016;19.890;2022-12-28T15:03:15;6.40;99.90
19692;DHT22;42748;50.016;19.890;2022-12-28T15:05:51;6.40;99.90
19692;DHT22;42748;50.016;19.890;2022-12-28T15:08:18;6.40;99.90
19692;DHT22;42748;50.016;19.890;2022-12-28T15:10:54;6.30;99.90
19692;DHT22;42748;50.016;19.890;2022-12-28T15:13:22;6.20;99.90
19692;DHT22;42748;50.016;19.890;2022-12-28T15:15:56;6.20;99.90
19692;DHT22;42748;50.016;19.890;2022-12-28T15:18:25;6.20;99.90
19692;DHT22;42748;50.016;19.890;2022-12-28T15:20:53;6.20;99.90
19692;DHT22;42748;50.016;19.890;2022-12-28T15:23:20;6.10;99.90
19692;DHT22;42748;50.016;19.890;2022-12-28T15:25:47;6.10;99.90
19692;DHT22;42748;50.016;19.890;2022-12-28T15:28:17;6.10;99.90
19692;DHT22;42748;50.016;19.890;2022-12-28T15:30:45;6.00;99.90
19692;DHT22;42748;50.016;19.890;2022-12-28T15:33:12;6.00;99.90
19692;DHT22;42748;50.016;19.890;2022-12-28T15:35:39;5.90;99.90
19692;DHT22;42748;50.016;19.890;2022-12-28T15:38:06;5.90;99.90
19692;DHT22;42748;50.016;19.890;2022-12-28T15:40:33;5.80;99.90
19692;DHT22;42748;50.016;19.890;2022-12-28T15:43:00;5.80;99.90
19692;DHT22;42748;50.016;19.890;2022-12-28T15:45:27;5.70;99.90
19692;DHT22;42748;50.016;19.890;2022-12-28T15:47:54;5.70;99.90
19692;DHT22;42748;50.016;19.890;2022-12-28T15:50:21;5.60;99.90
19692;DHT22;42748;50.016;19.890;2022-12-28T15:52:50;5.60;99.90
19692;DHT22;42748;50.016;19.890;2022-12-28T15:55:17;5.50;99.90
19692;DHT22;42748;50.016;19.890;2022-12-28T15:57:44;5.50;99.90
19692;DHT22;42748;50.016;19.890;2022-12-28T16:00:13;5.50;99.90
19692;DHT22;42748;50.016;19.890;2022-12-28T16:02:44;5.50;99.90
19692;DHT22;42748;50.016;19.890;2022-12-28T16:05:12;5.40;99.90
19692;DHT22;42748;50.016;19.890;2022-12-28T16:07:40;5.40;99.90
19692;DHT22;42748;50.016;19.890;2022-12-28T16:10:07;5.30;99.90
19692;DHT22;42748;50.016;19.890;2022-12-28T16:12:35;5.30;99.90
19692;DHT22;42748;50.016;19.890;2022-12-28T16:15:02;5.30;99.90
19692;DHT22;42748;50.016;19.890;2022-12-28T16:17:29;5.30;99.90
19692;DHT22;42748;50.016;19.890;2022-12-28T16:19:56;5.30;99.90
19692;DHT22;42748;50.016;19.890;2022-12-28T16:22:24;5.30;99.90
19692;DHT22;42748;50.016;19.890;2022-12-28T16:24:51;5.30;99.90
19692;DHT22;42748;50.016;19.890;2022-12-28T16:27:18;5.30;99.90
19692;DHT22;42748;50.016;19.890;2022-12-28T16:29:45;5.40;99.90
19692;DHT22;42748;50.016;19.890;2022-12-28T16:32:21;5.40;99.90
19692;DHT22;42748;50.016;19.890;2022-12-28T16:34:48;5.40;99.90
19692;DHT22;42748;50.016;19.890;2022-12-28T16:37:15;5.40;99.90
19692;DHT22;42748;50.016;19.890;2022-12-28T16:39:42;5.40;99.90
19692;DHT22;42748;50.016;19.890;2022-12-28T16:42:10;5.40;99.90
19692;DHT22;42748;50.016;19.890;2022-12-28T16:44:38;5.40;99.90
19692;DHT22;42748;50.016;19.890;2022-12-28T16:47:06;5.40;99.90
19692;DHT22;42748;50.016;19.890;2022-12-28T16:49:38;5.40;99.90
19692;DHT22;42748;50.016;19.890;2022-12-28T16:52:05;5.40;99.90
19692;DHT22;42748;50.016;19.890;2022-12-28T16:54:32;5.50;99.90
19692;DHT22;42748;50.016;19.890;2022-12-28T16:56:59;5.40;99.90
19692;DHT22;42748;50.016;19.890;2022-12-28T16:59:27;5.40;99.90
19692;DHT22;42748;50.016;19.890;2022-12-28T17:01:55;5.40;99.90
19692;DHT22;42748;50.016;19.890;2022-12-28T17:04:23;5.40;99.90
19692;DHT22;42748;50.016;19.890;2022-12-28T17:06:50;5.40;99.90
19692;DHT22;42748;50.016;19.890;2022-12-28T17:09:18;5.40;99.90
19692;DHT22;42748;50.016;19.890;2022-12-28T17:11:47;5.30;99.90
19692;DHT22;42748;50.016;19.890;2022-12-28T17:14:14;5.30;99.90
19692;DHT22;42748;50.016;19.890;2022-12-28T17:17:01;5.30;99.90
19692;DHT22;42748;50.016;19.890;2022-12-28T17:19:29;5.30;99.90
19692;DHT22;42748;50.016;19.890;2022-12-28T17:21:56;5.20;99.90
19692;DHT22;42748;50.016;19.890;2022-12-28T17:24:23;5.20;99.90
19692;DHT22;42748;50.016;19.890;2022-12-28T17:26:50;5.20;99.90
19692;DHT22;42748;50.016;19.890;2022-12-28T17:29:17;5.10;99.90
19692;DHT22;42748;50.016;19.890;2022-12-28T17:31:45;5.10;99.90
19692;DHT22;42748;50.016;19.890;2022-12-28T17:34:12;5.10;99.90